sensor_id;sensor_type;location;lat;lon;timestamp;pressure;altitude;pressure_sealevel;temperature;humidity
9839;BME280;4958;48.150;11.506;2023-01-29T00:01:53;96473.34;;;2.61;86.66
9839;BME280;4958;48.150;11.506;2023-01-29T00:04:25;96463.66;;;2.66;86.08
9839;BME280;4958;48.150;11.506;2023-01-29T00:07:12;96468.16;;;2.63;86.56
9839;BME280;4958;48.150;11.506;2023-01-29T00:09:43;96470.47;;;2.66;86.59
9839;BME280;4958;48.150;11.506;2023-01-29T00:12:22;96469.78;;;2.64;86.82
9839;BME280;4958;48.150;11.506;2023-01-29T00:15:00;96463.78;;;2.65;86.66
9839;BME280;4958;48.150;11.506;2023-01-29T00:17:40;96466.09;;;2.68;86.74
9839;BME280;4958;48.150;11.506;2023-01-29T00:20:13;96468.34;;;2.60;86.33
9839;BME280;4958;48.150;11.506;2023-01-29T00:22:41;96476.91;;;2.59;86.46
9839;BME280;4958;48.150;11.506;2023-01-29T00:25:08;96479.13;;;2.63;86.07
9839;BME280;4958;48.150;11.506;2023-01-29T00:27:40;96478.00;;;2.67;86.02
9839;BME280;4958;48.150;11.506;2023-01-29T00:30:28;96481.47;;;2.66;86.02
9839;BME280;4958;48.150;11.506;2023-01-29T00:35:51;96488.28;;;2.66;85.98
9839;BME280;4958;48.150;11.506;2023-01-29T00:38:27;96486.66;;;2.65;85.92
9839;BME280;4958;48.150;11.506;2023-01-29T00:41:17;96492.22;;;2.70;85.71
9839;BME280;4958;48.150;11.506;2023-01-29T00:44:01;96482.59;;;2.62;85.13
9839;BME280;4958;48.150;11.506;2023-01-29T00:47:03;96484.91;;;2.65;84.98
9839;BME280;4958;48.150;11.506;2023-01-29T00:50:14;96483.50;;;2.61;84.17
9839;BME280;4958;48.150;11.506;2023-01-29T00:52:46;96483.00;;;2.56;84.80
9839;BME280;4958;48.150;11.506;2023-01-29T00:55:18;96491.34;;;2.58;84.80
9839;BME280;4958;48.150;11.506;2023-01-29T00:57:52;96491.22;;;2.60;85.27
9839;BME280;4958;48.150;11.506;2023-01-29T01:00:27;96487.66;;;2.62;85.00
9839;BME280;4958;48.150;11.506;2023-01-29T01:03:26;96486.56;;;2.66;84.78
9839;BME280;4958;48.150;11.506;2023-01-29T01:06:06;96483.09;;;2.67;84.41
9839;BME280;4958;48.150;11.506;2023-01-29T01:08:37;96484.09;;;2.65;84.67
9839;BME280;4958;48.150;11.506;2023-01-29T01:11:21;96477.28;;;2.65;84.64
9839;BME280;4958;48.150;11.506;2023-01-29T01:14:09;96486.31;;;2.69;84.40
9839;BME280;4958;48.150;11.506;2023-01-29T01:16:40;96487.84;;;2.72;83.96
9839;BME280;4958;48.150;11.506;2023-01-29T01:19:17;96491.41;;;2.69;84.04
9839;BME280;4958;48.150;11.506;2023-01-29T01:22:18;96490.63;;;2.69;83.81
9839;BME280;4958;48.150;11.506;2023-01-29T01:24:58;96486.31;;;2.69;83.59
9839;BME280;4958;48.150;11.506;2023-01-29T01:27:39;96493.94;;;2.69;83.64
9839;BME280;4958;48.150;11.506;2023-01-29T01:30:16;96490.47;;;2.70;83.53
9839;BME280;4958;48.150;11.506;2023-01-29T01:32:55;96497.44;;;2.68;83.28
9839;BME280;4958;48.150;11.506;2023-01-29T01:35:40;96490.81;;;2.66;83.14
9839;BME280;4958;48.150;11.506;2023-01-29T01:38:10;96500.06;;;2.67;83.18
9839;BME280;4958;48.150;11.506;2023-01-29T01:40:44;96500.78;;;2.69;82.84
9839;BME280;4958;48.150;11.506;2023-01-29T01:43:12;96498.25;;;2.69;82.95
9839;BME280;4958;48.150;11.506;2023-01-29T01:45:39;96493.16;;;2.69;82.74
9839;BME280;4958;48.150;11.506;2023-01-29T01:48:12;96490.47;;;2.70;82.70
9839;BME280;4958;48.150;11.506;2023-01-29T01:53:55;96489.56;;;2.71;81.87
9839;BME280;4958;48.150;11.506;2023-01-29T01:56:36;96494.53;;;2.73;81.91
9839;BME280;4958;48.150;11.506;2023-01-29T01:59:16;96495.56;;;2.70;82.25
9839;BME280;4958;48.150;11.506;2023-01-29T02:01:54;96496.38;;;2.71;82.12
9839;BME280;4958;48.150;11.506;2023-01-29T02:04:46;96493.72;;;2.72;81.42
9839;BME280;4958;48.150;11.506;2023-01-29T02:07:40;96491.13;;;2.61;81.46
9839;BME280;4958;48.150;11.506;2023-01-29T02:10:41;96488.59;;;2.61;81.54
9839;BME280;4958;48.150;11.506;2023-01-29T02:13:20;96495.28;;;2.62;81.18
9839;BME280;4958;48.150;11.506;2023-01-29T02:15:48;96496.00;;;2.64;81.07
9839;BME280;4958;48.150;11.506;2023-01-29T02:18:25;96497.84;;;2.62;81.14
9839;BME280;4958;48.150;11.506;2023-01-29T02:21:26;96513.00;;;2.64;81.00
9839;BME280;4958;48.150;11.506;2023-01-29T02:27:23;96495.09;;;2.65;79.92
9839;BME280;4958;48.150;11.506;2023-01-29T02:30:22;96497.22;;;2.59;79.05
9839;BME280;4958;48.150;11.506;2023-01-29T02:33:03;96501.00;;;2.53;79.15
9839;BME280;4958;48.150;11.506;2023-01-29T02:35:41;96496.72;;;2.54;78.46
9839;BME280;4958;48.150;11.506;2023-01-29T02:38:15;96488.31;;;2.40;78.49
9839;BME280;4958;48.150;11.506;2023-01-29T02:41:03;96485.28;;;2.35;78.12
9839;BME280;4958;48.150;11.506;2023-01-29T02:43:42;96485.59;;;2.31;77.83
9839;BME280;4958;48.150;11.506;2023-01-29T02:46:26;96487.03;;;2.10;78.85
9839;BME280;4958;48.150;11.506;2023-01-29T02:49:22;96472.50;;;2.12;78.86
9839;BME280;4958;48.150;11.506;2023-01-29T02:52:08;96481.31;;;2.19;79.40
9839;BME280;4958;48.150;11.506;2023-01-29T02:55:20;96470.47;;;2.17;78.89
9839;BME280;4958;48.150;11.506;2023-01-29T03:00:46;96471.56;;;2.13;78.34
9839;BME280;4958;48.150;11.506;2023-01-29T03:03:37;96466.19;;;2.17;78.70
9839;BME280;4958;48.150;11.506;2023-01-29T03:06:14;96472.59;;;2.23;78.28
9839;BME280;4958;48.150;11.506;2023-01-29T03:08:53;96475.22;;;2.34;78.29
9839;BME280;4958;48.150;11.506;2023-01-29T03:11:33;96468.00;;;2.40;78.02
9839;BME280;4958;48.150;11.506;2023-01-29T03:14:18;96476.03;;;2.47;77.39
9839;BME280;4958;48.150;11.506;2023-01-29T03:16:54;96473.13;;;2.52;77.21
9839;BME280;4958;48.150;11.506;2023-01-29T03:19:38;96476.38;;;2.54;76.67
9839;BME280;4958;48.150;11.506;2023-01-29T03:22:10;96473.66;;;2.57;76.41
9839;BME280;4958;48.150;11.506;2023-01-29T03:25:03;96476.09;;;2.58;76.19
9839;BME280;4958;48.150;11.506;2023-01-29T03:27:56;96480.75;;;2.52;76.08
9839;BME280;4958;48.150;11.506;2023-01-29T03:30:49;96479.84;;;2.53;76.76
9839;BME280;4958;48.150;11.506;2023-01-29T03:33:46;96486.56;;;2.54;76.64
9839;BME280;4958;48.150;11.506;2023-01-29T03:36:26;96488.28;;;2.53;76.43
9839;BME280;4958;48.150;11.506;2023-01-29T03:39:05;96484.94;;;2.53;76.26
9839;BME280;4958;48.150;11.506;2023-01-29T03:41:43;96476.38;;;2.54;76.13
9839;BME280;4958;48.150;11.506;2023-01-29T03:44:34;96484.06;;;2.41;75.82
9839;BME280;4958;48.150;11.506;2023-01-29T03:47:17;96478.56;;;2.34;75.43
9839;BME280;4958;48.150;11.506;2023-01-29T03:50:00;96475.81;;;2.37;75.73
9839;BME280;4958;48.150;11.506;2023-01-29T03:52:40;96463.09;;;2.37;76.19
9839;BME280;4958;48.150;11.506;2023-01-29T03:55:25;96464.31;;;2.45;75.94
9839;BME280;4958;48.150;11.506;2023-01-29T04:01:23;96441.34;;;2.46;75.22
9839;BME280;4958;48.150;11.506;2023-01-29T04:04:02;96443.09;;;2.46;74.42
9839;BME280;4958;48.150;11.506;2023-01-29T04:06:36;96442.56;;;2.40;74.01
9839;BME280;4958;48.150;11.506;2023-01-29T04:09:13;96437.91;;;2.34;75.00
9839;BME280;4958;48.150;11.506;2023-01-29T04:12:07;96444.31;;;2.40;74.92
9839;BME280;4958;48.150;11.506;2023-01-29T04:14:38;96444.81;;;2.45;74.81
9839;BME280;4958;48.150;11.506;2023-01-29T04:17:21;96448.44;;;2.54;74.73
9839;BME280;4958;48.150;11.506;2023-01-29T04:20:06;96450.75;;;2.57;74.65
9839;BME280;4958;48.150;11.506;2023-01-29T04:22:45;96451.06;;;2.52;73.62
9839;BME280;4958;48.150;11.506;2023-01-29T04:25:21;96457.22;;;2.50;74.33
9839;BME280;4958;48.150;11.506;2023-01-29T04:28:04;96454.53;;;2.51;74.40
9839;BME280;4958;48.150;11.506;2023-01-29T04:30:40;96448.53;;;2.52;74.70
9839;BME280;4958;48.150;11.506;2023-01-29T04:33:30;96454.31;;;2.54;74.92
9839;BME280;4958;48.150;11.506;2023-01-29T04:36:17;96451.31;;;2.49;75.04
9839;BME280;4958;48.150;11.506;2023-01-29T04:42:03;96459.50;;;2.53;75.56
9839;BME280;4958;48.150;11.506;2023-01-29T04:44:40;96457.56;;;2.56;75.81
9839;BME280;4958;48.150;11.506;2023-01-29T04:47:31;96462.56;;;2.58;75.41
9839;BME280;4958;48.150;11.506;2023-01-29T04:50:12;96462.75;;;2.55;75.66
9839;BME280;4958;48.150;11.506;2023-01-29T04:52:48;96446.69;;;2.54;75.85
9839;BME280;4958;48.150;11.506;2023-01-29T04:55:37;96449.44;;;2.51;75.39
9839;BME280;4958;48.150;11.506;2023-01-29T04:58:11;96456.88;;;2.54;75.82
9839;BME280;4958;48.150;11.506;2023-01-29T05:00:41;96435.00;;;2.52;75.60
9839;BME280;4958;48.150;11.506;2023-01-29T05:03:13;96439.06;;;2.54;75.49
9839;BME280;4958;48.150;11.506;2023-01-29T05:05:47;96444.88;;;2.56;75.26
9839;BME280;4958;48.150;11.506;2023-01-29T05:08:19;96443.84;;;2.59;75.65
9839;BME280;4958;48.150;11.506;2023-01-29T05:10:51;96460.03;;;2.58;75.29
9839;BME280;4958;48.150;11.506;2023-01-29T05:13:25;96465.81;;;2.60;75.37
9839;BME280;4958;48.150;11.506;2023-01-29T05:15:59;96460.72;;;2.60;75.07
9839;BME280;4958;48.150;11.506;2023-01-29T05:18:38;96456.34;;;2.62;75.49
9839;BME280;4958;48.150;11.506;2023-01-29T05:21:08;96455.44;;;2.63;75.24
9839;BME280;4958;48.150;11.506;2023-01-29T05:23:37;96465.59;;;2.63;75.07
9839;BME280;4958;48.150;11.506;2023-01-29T05:26:12;96469.66;;;2.65;75.36
9839;BME280;4958;48.150;11.506;2023-01-29T05:29:06;96479.13;;;2.63;75.11
9839;BME280;4958;48.150;11.506;2023-01-29T05:31:42;96486.97;;;2.60;75.07
9839;BME280;4958;48.150;11.506;2023-01-29T05:34:10;96487.88;;;2.59;75.08
9839;BME280;4958;48.150;11.506;2023-01-29T05:36:39;96489.00;;;2.55;74.82
9839;BME280;4958;48.150;11.506;2023-01-29T05:39:05;96491.16;;;2.49;74.57
9839;BME280;4958;48.150;11.506;2023-01-29T05:41:41;96497.25;;;2.46;75.03
9839;BME280;4958;48.150;11.506;2023-01-29T05:44:15;96501.44;;;2.47;75.23
9839;BME280;4958;48.150;11.506;2023-01-29T05:46:41;96494.38;;;2.51;75.14
9839;BME280;4958;48.150;11.506;2023-01-29T05:49:15;96497.63;;;2.53;74.76
9839;BME280;4958;48.150;11.506;2023-01-29T05:51:42;96506.69;;;2.57;75.01
9839;BME280;4958;48.150;11.506;2023-01-29T05:57:14;96501.09;;;2.52;74.65
9839;BME280;4958;48.150;11.506;2023-01-29T05:59:42;96496.72;;;2.54;74.54
9839;BME280;4958;48.150;11.506;2023-01-29T06:02:28;96497.75;;;2.51;74.31
9839;BME280;4958;48.150;11.506;2023-01-29T06:04:57;96494.00;;;2.44;74.55
9839;BME280;4958;48.150;11.506;2023-01-29T06:07:23;96497.38;;;2.45;75.27
9839;BME280;4958;48.150;11.506;2023-01-29T06:09:50;96493.59;;;2.50;75.03
9839;BME280;4958;48.150;11.506;2023-01-29T06:12:20;96490.94;;;2.52;75.17
9839;BME280;4958;48.150;11.506;2023-01-29T06:14:55;96494.91;;;2.56;74.79
9839;BME280;4958;48.150;11.506;2023-01-29T06:17:38;96489.81;;;2.56;74.91
9839;BME280;4958;48.150;11.506;2023-01-29T06:20:06;96476.19;;;2.57;74.57
9839;BME280;4958;48.150;11.506;2023-01-29T06:22:47;96479.44;;;2.59;74.51
9839;BME280;4958;48.150;11.506;2023-01-29T06:25:19;96486.97;;;2.60;74.63
9839;BME280;4958;48.150;11.506;2023-01-29T06:27:55;96484.41;;;2.60;74.75
9839;BME280;4958;48.150;11.506;2023-01-29T06:30:38;96488.91;;;2.57;73.97
9839;BME280;4958;48.150;11.506;2023-01-29T06:33:07;96490.53;;;2.58;74.11
9839;BME280;4958;48.150;11.506;2023-01-29T06:35:34;96484.53;;;2.59;73.84
9839;BME280;4958;48.150;11.506;2023-01-29T06:38:00;96494.91;;;2.56;74.20
9839;BME280;4958;48.150;11.506;2023-01-29T06:40:30;96501.81;;;2.54;74.24
9839;BME280;4958;48.150;11.506;2023-01-29T06:43:13;96503.44;;;2.55;73.92
9839;BME280;4958;48.150;11.506;2023-01-29T06:45:47;96491.63;;;2.54;74.34
9839;BME280;4958;48.150;11.506;2023-01-29T06:48:16;96499.28;;;2.41;74.12
9839;BME280;4958;48.150;11.506;2023-01-29T06:50:46;96500.00;;;2.43;74.46
9839;BME280;4958;48.150;11.506;2023-01-29T06:53:14;96503.97;;;2.47;74.36
9839;BME280;4958;48.150;11.506;2023-01-29T06:55:41;96495.63;;;2.45;74.23
9839;BME280;4958;48.150;11.506;2023-01-29T06:58:14;96498.69;;;2.50;73.79
9839;BME280;4958;48.150;11.506;2023-01-29T07:00:40;96500.19;;;2.53;74.26
9839;BME280;4958;48.150;11.506;2023-01-29T07:03:11;96499.47;;;2.51;74.28
9839;BME280;4958;48.150;11.506;2023-01-29T07:05:41;96493.09;;;2.45;74.35
9839;BME280;4958;48.150;11.506;2023-01-29T07:08:10;96496.75;;;2.41;74.50
9839;BME280;4958;48.150;11.506;2023-01-29T07:10:36;96492.69;;;2.38;75.04
9839;BME280;4958;48.150;11.506;2023-01-29T07:13:09;96493.59;;;2.37;74.82
9839;BME280;4958;48.150;11.506;2023-01-29T07:15:42;96489.94;;;2.41;74.68
9839;BME280;4958;48.150;11.506;2023-01-29T07:18:59;96486.69;;;2.39;74.70
9839;BME280;4958;48.150;11.506;2023-01-29T07:31:29;96476.16;;;2.20;73.97
9839;BME280;4958;48.150;11.506;2023-01-29T07:40:33;96468.00;;;2.15;74.75
9839;BME280;4958;48.150;11.506;2023-01-29T07:43:12;96470.88;;;2.23;74.08
9839;BME280;4958;48.150;11.506;2023-01-29T07:45:41;96462.94;;;2.28;74.14
9839;BME280;4958;48.150;11.506;2023-01-29T07:49:15;96467.09;;;2.16;73.73
9839;BME280;4958;48.150;11.506;2023-01-29T07:51:46;96456.22;;;2.14;73.93
9839;BME280;4958;48.150;11.506;2023-01-29T07:54:13;96465.19;;;2.20;73.98
9839;BME280;4958;48.150;11.506;2023-01-29T07:56:40;96466.69;;;2.22;73.63
9839;BME280;4958;48.150;11.506;2023-01-29T07:59:07;96462.84;;;2.17;74.41
9839;BME280;4958;48.150;11.506;2023-01-29T08:01:33;96464.16;;;2.22;74.08
9839;BME280;4958;48.150;11.506;2023-01-29T08:04:00;96468.22;;;2.25;74.32
9839;BME280;4958;48.150;11.506;2023-01-29T08:06:26;96467.69;;;2.32;74.03
9839;BME280;4958;48.150;11.506;2023-01-29T08:08:57;96453.78;;;2.25;73.48
9839;BME280;4958;48.150;11.506;2023-01-29T08:11:27;96454.31;;;2.30;73.01
9839;BME280;4958;48.150;11.506;2023-01-29T08:13:57;96460.41;;;2.28;72.09
9839;BME280;4958;48.150;11.506;2023-01-29T08:16:26;96466.50;;;2.25;72.44
9839;BME280;4958;48.150;11.506;2023-01-29T08:18:54;96467.31;;;2.26;72.28
9839;BME280;4958;48.150;11.506;2023-01-29T08:21:21;96460.19;;;2.31;73.05
9839;BME280;4958;48.150;11.506;2023-01-29T08:23:47;96460.97;;;2.31;71.73
9839;BME280;4958;48.150;11.506;2023-01-29T08:26:14;96465.69;;;2.25;71.49
9839;BME280;4958;48.150;11.506;2023-01-29T08:28:40;96472.75;;;2.32;72.26
9839;BME280;4958;48.150;11.506;2023-01-29T08:31:13;96473.28;;;2.37;71.61
9839;BME280;4958;48.150;11.506;2023-01-29T08:33:39;96478.16;;;2.40;70.48
9839;BME280;4958;48.150;11.506;2023-01-29T08:36:07;96477.75;;;2.34;71.15
9839;BME280;4958;48.150;11.506;2023-01-29T08:38:34;96477.44;;;2.38;70.48
9839;BME280;4958;48.150;11.506;2023-01-29T08:41:01;96486.19;;;2.34;70.74
9839;BME280;4958;48.150;11.506;2023-01-29T08:43:27;96485.38;;;2.34;71.09
9839;BME280;4958;48.150;11.506;2023-01-29T08:45:54;96496.44;;;2.33;71.29
9839;BME280;4958;48.150;11.506;2023-01-29T08:48:22;96492.50;;;2.41;71.13
9839;BME280;4958;48.150;11.506;2023-01-29T08:50:49;96504.88;;;2.46;71.56
9839;BME280;4958;48.150;11.506;2023-01-29T08:53:16;96501.34;;;2.49;70.62
9839;BME280;4958;48.150;11.506;2023-01-29T08:55:44;96505.16;;;2.54;70.41
9839;BME280;4958;48.150;11.506;2023-01-29T08:58:11;96511.78;;;2.57;69.93
9839;BME280;4958;48.150;11.506;2023-01-29T09:00:38;96502.72;;;2.53;69.73
9839;BME280;4958;48.150;11.506;2023-01-29T09:03:04;96507.41;;;2.59;70.21
9839;BME280;4958;48.150;11.506;2023-01-29T09:05:35;96515.53;;;2.64;69.88
9839;BME280;4958;48.150;11.506;2023-01-29T09:08:04;96513.09;;;2.62;69.87
9839;BME280;4958;48.150;11.506;2023-01-29T09:10:34;96514.00;;;2.61;69.76
9839;BME280;4958;48.150;11.506;2023-01-29T09:13:01;96521.44;;;2.64;69.43
9839;BME280;4958;48.150;11.506;2023-01-29T09:15:27;96523.47;;;2.59;69.81
9839;BME280;4958;48.150;11.506;2023-01-29T09:17:54;96531.91;;;2.60;69.58
9839;BME280;4958;48.150;11.506;2023-01-29T09:20:23;96534.03;;;2.66;69.95
9839;BME280;4958;48.150;11.506;2023-01-29T09:22:51;96538.31;;;2.65;70.06
9839;BME280;4958;48.150;11.506;2023-01-29T09:25:20;96541.06;;;2.62;70.07
9839;BME280;4958;48.150;11.506;2023-01-29T09:27:53;96535.16;;;2.62;70.08
9839;BME280;4958;48.150;11.506;2023-01-29T09:30:19;96544.22;;;2.66;69.97
9839;BME280;4958;48.150;11.506;2023-01-29T09:32:46;96543.41;;;2.65;70.06
9839;BME280;4958;48.150;11.506;2023-01-29T09:35:12;96543.19;;;2.56;71.21
9839;BME280;4958;48.150;11.506;2023-01-29T09:37:39;96550.31;;;2.51;71.44
9839;BME280;4958;48.150;11.506;2023-01-29T09:42:47;96552.25;;;2.47;72.53
9839;BME280;4958;48.150;11.506;2023-01-29T09:45:21;96562.09;;;2.52;72.14
9839;BME280;4958;48.150;11.506;2023-01-29T09:47:49;96560.88;;;2.57;71.91
9839;BME280;4958;48.150;11.506;2023-01-29T09:50:19;96557.94;;;2.63;71.28
9839;BME280;4958;48.150;11.506;2023-01-29T09:52:50;96565.66;;;2.62;71.47
9839;BME280;4958;48.150;11.506;2023-01-29T09:55:22;96559.47;;;2.66;71.48
9839;BME280;4958;48.150;11.506;2023-01-29T09:57:52;96556.31;;;2.62;71.86
9839;BME280;4958;48.150;11.506;2023-01-29T10:00:24;96556.91;;;2.66;71.49
9839;BME280;4958;48.150;11.506;2023-01-29T10:03:03;96546.22;;;2.73;71.29
9839;BME280;4958;48.150;11.506;2023-01-29T10:05:51;96544.06;;;2.80;71.24
9839;BME280;4958;48.150;11.506;2023-01-29T10:08:32;96541.13;;;2.73;69.86
9839;BME280;4958;48.150;11.506;2023-01-29T10:11:14;96550.81;;;2.68;69.59
9839;BME280;4958;48.150;11.506;2023-01-29T10:13:48;96554.97;;;2.69;70.23
9839;BME280;4958;48.150;11.506;2023-01-29T10:16:34;96550.63;;;2.59;70.10
9839;BME280;4958;48.150;11.506;2023-01-29T10:19:15;96541.78;;;2.64;70.65
9839;BME280;4958;48.150;11.506;2023-01-29T10:21:54;96539.31;;;2.63;70.89
9839;BME280;4958;48.150;11.506;2023-01-29T10:24:35;96544.22;;;2.66;71.00
9839;BME280;4958;48.150;11.506;2023-01-29T10:27:11;96535.16;;;2.62;71.16
9839;BME280;4958;48.150;11.506;2023-01-29T10:29:40;96536.97;;;2.72;71.10
9839;BME280;4958;48.150;11.506;2023-01-29T10:32:12;96541.13;;;2.73;71.28
9839;BME280;4958;48.150;11.506;2023-01-29T10:34:41;96535.03;;;2.76;71.23
9839;BME280;4958;48.150;11.506;2023-01-29T10:37:15;96531.66;;;2.75;70.63
9839;BME280;4958;48.150;11.506;2023-01-29T10:39:42;96532.97;;;2.81;70.86
9839;BME280;4958;48.150;11.506;2023-01-29T10:42:18;96532.97;;;3.41;100.00
9839;BME280;4958;48.150;11.506;2023-01-29T10:45:01;96530.56;;;3.51;75.56
9839;BME280;4958;48.150;11.506;2023-01-29T10:47:49;96527.88;;;3.41;75.11
9839;BME280;4958;48.150;11.506;2023-01-29T10:50:28;96527.72;;;3.32;72.32
9839;BME280;4958;48.150;11.506;2023-01-29T10:53:11;96530.38;;;3.06;69.30
9839;BME280;4958;48.150;11.506;2023-01-29T10:55:48;96515.22;;;3.05;71.60
9839;BME280;4958;48.150;11.506;2023-01-29T10:58:28;96532.22;;;3.04;70.58
9839;BME280;4958;48.150;11.506;2023-01-29T11:00:56;96524.19;;;2.98;71.32
9839;BME280;4958;48.150;11.506;2023-01-29T11:03:24;96528.34;;;2.99;71.05
9839;BME280;4958;48.150;11.506;2023-01-29T11:05:57;96518.88;;;3.01;71.25
9839;BME280;4958;48.150;11.506;2023-01-29T11:08:32;96512.50;;;2.95;70.58
9839;BME280;4958;48.150;11.506;2023-01-29T11:11:06;96514.63;;;3.01;71.32
9839;BME280;4958;48.150;11.506;2023-01-29T11:13:38;96514.31;;;3.06;70.80
9839;BME280;4958;48.150;11.506;2023-01-29T11:16:08;96509.09;;;3.07;70.18
9839;BME280;4958;48.150;11.506;2023-01-29T11:18:49;96503.88;;;3.09;69.94
9839;BME280;4958;48.150;11.506;2023-01-29T11:21:17;96503.53;;;3.02;69.41
9839;BME280;4958;48.150;11.506;2023-01-29T11:23:47;96498.34;;;3.04;69.90
9839;BME280;4958;48.150;11.506;2023-01-29T11:26:19;96501.91;;;3.01;69.31
9839;BME280;4958;48.150;11.506;2023-01-29T11:28:52;96496.09;;;2.99;69.38
9839;BME280;4958;48.150;11.506;2023-01-29T11:31:22;96489.81;;;2.92;68.79
9839;BME280;4958;48.150;11.506;2023-01-29T11:33:52;96492.84;;;2.97;69.69
9839;BME280;4958;48.150;11.506;2023-01-29T11:36:28;96490.91;;;3.01;69.59
9839;BME280;4958;48.150;11.506;2023-01-29T11:39:11;96487.22;;;3.05;69.33
9839;BME280;4958;48.150;11.506;2023-01-29T11:41:51;96493.84;;;3.07;69.59
9839;BME280;4958;48.150;11.506;2023-01-29T11:44:25;96492.53;;;3.02;69.37
9839;BME280;4958;48.150;11.506;2023-01-29T11:46:53;96489.88;;;3.03;68.78
9839;BME280;4958;48.150;11.506;2023-01-29T11:49:23;96476.66;;;2.98;68.80
9839;BME280;4958;48.150;11.506;2023-01-29T11:51:54;96464.75;;;2.99;68.35
9839;BME280;4958;48.150;11.506;2023-01-29T11:54:24;96448.09;;;2.95;68.39
9839;BME280;4958;48.150;11.506;2023-01-29T11:56:53;96434.25;;;2.99;68.25
9839;BME280;4958;48.150;11.506;2023-01-29T11:59:29;96420.06;;;2.84;68.02
9839;BME280;4958;48.150;11.506;2023-01-29T12:02:05;96415.09;;;2.82;68.38
9839;BME280;4958;48.150;11.506;2023-01-29T12:04:39;96412.34;;;2.85;68.82
9839;BME280;4958;48.150;11.506;2023-01-29T12:07:11;96407.78;;;2.77;68.88
9839;BME280;4958;48.150;11.506;2023-01-29T12:09:38;96410.31;;;3.36;100.00
9839;BME280;4958;48.150;11.506;2023-01-29T12:12:27;96414.81;;;4.01;92.20
9839;BME280;4958;48.150;11.506;2023-01-29T12:15:15;96403.22;;;4.08;70.06
9839;BME280;4958;48.150;11.506;2023-01-29T12:17:44;96399.03;;;3.85;67.88
9839;BME280;4958;48.150;11.506;2023-01-29T12:20:16;96410.97;;;3.73;67.88
9839;BME280;4958;48.150;11.506;2023-01-29T12:22:52;96410.47;;;3.57;68.11
9839;BME280;4958;48.150;11.506;2023-01-29T12:25:35;96417.13;;;3.36;68.52
9839;BME280;4958;48.150;11.506;2023-01-29T12:28:09;96421.41;;;3.35;68.60
9839;BME280;4958;48.150;11.506;2023-01-29T12:30:49;96427.84;;;3.28;68.13
9839;BME280;4958;48.150;11.506;2023-01-29T12:33:25;96434.88;;;3.13;68.57
9839;BME280;4958;48.150;11.506;2023-01-29T12:36:01;96430.69;;;3.12;69.21
9839;BME280;4958;48.150;11.506;2023-01-29T12:38:32;96424.97;;;2.98;68.17
9839;BME280;4958;48.150;11.506;2023-01-29T12:41:06;96421.09;;;3.05;69.08
9839;BME280;4958;48.150;11.506;2023-01-29T12:43:45;96411.72;;;3.05;68.84
9839;BME280;4958;48.150;11.506;2023-01-29T12:46:20;96412.06;;;3.12;69.38
9839;BME280;4958;48.150;11.506;2023-01-29T12:48:48;96401.59;;;3.17;68.84
9839;BME280;4958;48.150;11.506;2023-01-29T12:51:17;96405.63;;;3.19;68.14
9839;BME280;4958;48.150;11.506;2023-01-29T12:53:49;96400.75;;;3.05;68.73
9839;BME280;4958;48.150;11.506;2023-01-29T12:56:25;96391.59;;;3.02;68.87
9839;BME280;4958;48.150;11.506;2023-01-29T12:58:55;96388.72;;;3.07;69.39
9839;BME280;4958;48.150;11.506;2023-01-29T13:01:28;96381.56;;;3.12;68.81
9839;BME280;4958;48.150;11.506;2023-01-29T13:04:08;96378.91;;;3.13;68.65
9839;BME280;4958;48.150;11.506;2023-01-29T13:06:39;96371.25;;;3.13;68.65
9839;BME280;4958;48.150;11.506;2023-01-29T13:09:10;96361.66;;;3.06;68.58
9839;BME280;4958;48.150;11.506;2023-01-29T13:11:40;96364.31;;;3.04;68.62
9839;BME280;4958;48.150;11.506;2023-01-29T13:14:19;96357.81;;;3.00;67.86
9839;BME280;4958;48.150;11.506;2023-01-29T13:16:56;96345.53;;;2.94;68.30
9839;BME280;4958;48.150;11.506;2023-01-29T13:19:30;96343.09;;;2.93;68.12
9839;BME280;4958;48.150;11.506;2023-01-29T13:22:00;96339.41;;;2.97;68.11
9839;BME280;4958;48.150;11.506;2023-01-29T13:24:35;96334.22;;;2.98;68.41
9839;BME280;4958;48.150;11.506;2023-01-29T13:27:04;96341.69;;;2.89;68.22
9839;BME280;4958;48.150;11.506;2023-01-29T13:29:32;96341.69;;;2.89;68.47
9839;BME280;4958;48.150;11.506;2023-01-29T13:32:02;96334.41;;;2.84;69.39
9839;BME280;4958;48.150;11.506;2023-01-29T13:34:31;96350.59;;;2.83;69.17
9839;BME280;4958;48.150;11.506;2023-01-29T13:37:00;96343.28;;;2.78;69.33
9839;BME280;4958;48.150;11.506;2023-01-29T13:39:29;96335.13;;;2.86;68.92
9839;BME280;4958;48.150;11.506;2023-01-29T13:41:58;96337.56;;;2.88;68.75
9839;BME280;4958;48.150;11.506;2023-01-29T13:44:27;96334.19;;;2.87;68.74
9839;BME280;4958;48.150;11.506;2023-01-29T13:46:57;96328.75;;;2.81;68.46
9839;BME280;4958;48.150;11.506;2023-01-29T13:49:29;96320.63;;;2.75;68.74
9839;BME280;4958;48.150;11.506;2023-01-29T13:51:57;96321.44;;;2.76;69.10
9839;BME280;4958;48.150;11.506;2023-01-29T13:54:31;96321.44;;;2.76;69.43
9839;BME280;4958;48.150;11.506;2023-01-29T13:57:04;96314.28;;;3.38;100.00
9839;BME280;4958;48.150;11.506;2023-01-29T13:59:49;96311.38;;;3.88;76.69
9839;BME280;4958;48.150;11.506;2023-01-29T14:02:24;96306.66;;;3.83;69.46
9839;BME280;4958;48.150;11.506;2023-01-29T14:07:53;96301.69;;;3.37;68.24
9839;BME280;4958;48.150;11.506;2023-01-29T14:10:21;96310.34;;;3.23;68.39
9839;BME280;4958;48.150;11.506;2023-01-29T14:12:51;96304.09;;;3.16;68.41
9839;BME280;4958;48.150;11.506;2023-01-29T14:15:27;96306.94;;;3.00;68.83
9839;BME280;4958;48.150;11.506;2023-01-29T14:18:12;96304.13;;;2.92;68.86
9839;BME280;4958;48.150;11.506;2023-01-29T14:20:49;96297.84;;;2.74;69.70
9839;BME280;4958;48.150;11.506;2023-01-29T14:23:26;96303.03;;;2.72;70.11
9839;BME280;4958;48.150;11.506;2023-01-29T14:25:53;96307.66;;;2.67;70.39
9839;BME280;4958;48.150;11.506;2023-01-29T14:28:25;96310.44;;;2.64;69.83
9839;BME280;4958;48.150;11.506;2023-01-29T14:31:07;96307.72;;;2.55;70.32
9839;BME280;4958;48.150;11.506;2023-01-29T14:33:35;96308.00;;;2.63;70.22
9839;BME280;4958;48.150;11.506;2023-01-29T14:36:05;96314.47;;;2.67;69.73
9839;BME280;4958;48.150;11.506;2023-01-29T14:38:38;96321.06;;;2.69;70.04
9839;BME280;4958;48.150;11.506;2023-01-29T14:41:19;96330.44;;;2.69;69.73
9839;BME280;4958;48.150;11.506;2023-01-29T14:43:51;96329.63;;;2.68;70.03
9839;BME280;4958;48.150;11.506;2023-01-29T14:46:51;96339.44;;;2.73;69.89
9839;BME280;4958;48.150;11.506;2023-01-29T14:49:50;96340.47;;;2.70;70.21
9839;BME280;4958;48.150;11.506;2023-01-29T14:52:36;96338.75;;;2.71;70.08